createdAt,value
2019-04-07T00:00:10.532Z,23.10
2019-04-07T00:01:13.873Z,23.10
2019-04-07T00:02:17.945Z,23.10
2019-04-07T00:03:21.475Z,23.10
2019-04-07T00:04:24.951Z,23.10
2019-04-07T00:05:28.771Z,23.10
2019-04-07T00:06:31.994Z,23.00
2019-04-07T00:07:35.233Z,23.10
2019-04-07T00:08:38.682Z,23.10
2019-04-07T00:09:42.475Z,23.10
2019-04-07T00:10:45.795Z,23.00
2019-04-07T00:11:51.995Z,23.00
2019-04-07T00:12:55.527Z,23.10
2019-04-07T00:14:01.223Z,23.00
2019-04-07T00:15:05.957Z,23.00
2019-04-07T00:16:09.788Z,23.00
2019-04-07T00:17:13.689Z,23.00
2019-04-07T00:18:17.197Z,23.00
2019-04-07T00:19:22.170Z,23.00
2019-04-07T00:20:25.528Z,23.00
2019-04-07T00:21:31.816Z,23.00
2019-04-07T00:22:35.185Z,23.00
2019-04-07T00:23:38.933Z,23.00
2019-04-07T00:24:42.604Z,23.00
2019-04-07T00:25:46.006Z,23.00
2019-04-07T00:26:49.264Z,23.00
2019-04-07T00:27:52.838Z,23.00
2019-04-07T00:28:56.554Z,23.00
2019-04-07T00:30:00.023Z,23.00
2019-04-07T00:31:03.319Z,23.00
2019-04-07T00:32:10.026Z,23.00
2019-04-07T00:33:13.377Z,23.00
2019-04-07T00:34:16.595Z,23.00
2019-04-07T00:35:26.524Z,23.00
2019-04-07T00:36:25.296Z,23.00
2019-04-07T00:37:31.305Z,23.00
2019-04-07T00:38:34.707Z,23.00
2019-04-07T00:39:41.325Z,23.00
2019-04-07T00:40:46.735Z,23.00
2019-04-07T00:41:49.957Z,23.00
2019-04-07T00:42:59.910Z,23.00
2019-04-07T00:44:03.193Z,23.00
2019-04-07T00:45:06.467Z,23.00
2019-04-07T00:46:09.688Z,23.00
2019-04-07T00:47:13.158Z,23.00
2019-04-07T00:48:16.861Z,23.00
2019-04-07T00:49:20.612Z,23.00
2019-04-07T00:50:25.754Z,22.90
2019-04-07T00:51:29.051Z,23.00
2019-04-07T00:52:34.882Z,22.90
2019-04-07T00:53:38.737Z,23.00
2019-04-07T00:54:43.220Z,23.00
2019-04-07T00:55:47.549Z,22.90
2019-04-07T00:56:51.207Z,23.00
2019-04-07T00:57:54.532Z,23.00
2019-04-07T00:58:57.915Z,23.00
2019-04-07T01:00:01.698Z,22.90
2019-04-07T01:01:05.316Z,22.90
2019-04-07T01:02:09.073Z,22.90
2019-04-07T01:03:14.910Z,22.90
2019-04-07T01:04:18.118Z,22.90
2019-04-07T01:05:33.704Z,22.90
2019-04-07T01:06:29.438Z,23.00
2019-04-07T01:07:33.441Z,22.90
2019-04-07T01:08:37.235Z,22.90
2019-04-07T01:09:40.979Z,22.90
2019-04-07T01:10:44.522Z,22.90
2019-04-07T01:11:48.570Z,22.90
2019-04-07T01:12:54.044Z,22.90
2019-04-07T01:13:57.314Z,22.90
2019-04-07T01:15:00.606Z,22.90
2019-04-07T01:16:03.956Z,22.90
2019-04-07T01:17:07.330Z,22.90
2019-04-07T01:18:10.548Z,22.90
2019-04-07T01:19:14.651Z,22.90
2019-04-07T01:20:17.975Z,22.90
2019-04-07T01:21:21.190Z,22.90
2019-04-07T01:22:24.476Z,22.90
2019-04-07T01:23:28.220Z,22.90
2019-04-07T01:24:31.575Z,22.90
2019-04-07T01:25:34.781Z,22.90
2019-04-07T01:26:38.160Z,22.90
2019-04-07T01:27:41.494Z,22.90
2019-04-07T01:28:44.928Z,22.90
2019-04-07T01:29:49.088Z,22.90
2019-04-07T01:30:53.335Z,22.90
2019-04-07T01:31:56.735Z,22.90
2019-04-07T01:33:00.832Z,22.90
2019-04-07T01:34:04.395Z,22.90
2019-04-07T01:35:07.791Z,22.90
2019-04-07T01:36:11.248Z,22.90
2019-04-07T01:37:15.290Z,22.90
2019-04-07T01:38:18.595Z,22.90
2019-04-07T01:39:24.061Z,22.90
2019-04-07T01:40:27.547Z,22.90
2019-04-07T01:41:32.911Z,22.90
2019-04-07T01:42:36.730Z,22.90
2019-04-07T01:43:40.490Z,22.90
2019-04-07T01:44:44.613Z,22.90
2019-04-07T01:45:47.950Z,22.90
2019-04-07T01:46:51.164Z,22.90
2019-04-07T01:47:54.825Z,22.90
2019-04-07T01:48:58.604Z,22.90
2019-04-07T01:50:02.161Z,22.90
2019-04-07T01:51:07.223Z,22.80
2019-04-07T01:52:10.862Z,22.80
2019-04-07T01:53:14.835Z,22.80
2019-04-07T01:54:18.430Z,22.90
2019-04-07T01:55:21.634Z,22.80
2019-04-07T01:56:24.842Z,22.80
2019-04-07T01:57:28.058Z,22.90
2019-04-07T01:58:31.672Z,22.80
2019-04-07T01:59:35.511Z,22.80
2019-04-07T02:00:39.130Z,22.80
2019-04-07T02:01:45.109Z,22.80
2019-04-07T02:02:49.478Z,22.80
2019-04-07T02:03:54.603Z,22.80
2019-04-07T02:04:58.021Z,22.80
2019-04-07T02:06:04.481Z,22.80
2019-04-07T02:07:12.976Z,22.80
2019-04-07T02:08:16.648Z,22.80
2019-04-07T02:09:20.071Z,22.80
2019-04-07T02:10:24.017Z,22.80
2019-04-07T02:11:27.587Z,22.80
2019-04-07T02:12:31.406Z,22.80
2019-04-07T02:13:35.077Z,22.80
2019-04-07T02:14:39.320Z,22.80
2019-04-07T02:15:42.765Z,22.80
2019-04-07T02:16:46.522Z,22.80
2019-04-07T02:17:50.584Z,22.80
2019-04-07T02:18:56.159Z,22.80
2019-04-07T02:19:59.456Z,22.80
2019-04-07T02:21:05.434Z,22.80
2019-04-07T02:22:08.818Z,22.80
2019-04-07T02:23:12.771Z,22.80
2019-04-07T02:24:16.123Z,22.80
2019-04-07T02:25:19.894Z,22.80
2019-04-07T02:26:23.569Z,22.80
2019-04-07T02:27:26.860Z,22.80
2019-04-07T02:28:30.774Z,22.80
2019-04-07T02:29:34.657Z,22.80
2019-04-07T02:30:39.246Z,22.80
2019-04-07T02:31:42.591Z,22.80
2019-04-07T02:32:51.107Z,22.80
2019-04-07T02:33:56.276Z,22.80
2019-04-07T02:35:01.376Z,22.80
2019-04-07T02:36:16.047Z,22.80
2019-04-07T02:37:09.929Z,22.80
2019-04-07T02:38:15.085Z,22.80
2019-04-07T02:39:18.320Z,22.80
2019-04-07T02:40:21.667Z,22.80
2019-04-07T02:41:26.049Z,22.80
2019-04-07T02:42:30.327Z,22.80
2019-04-07T02:43:40.282Z,22.80
2019-04-07T02:44:45.247Z,22.80
2019-04-07T02:45:49.301Z,22.80
2019-04-07T02:46:53.421Z,22.80
2019-04-07T02:47:57.718Z,22.70
2019-04-07T02:49:05.897Z,22.80
2019-04-07T02:50:10.122Z,22.80
2019-04-07T02:51:13.448Z,22.70
2019-04-07T02:52:16.892Z,22.70
2019-04-07T02:53:20.096Z,22.80
2019-04-07T02:54:23.404Z,22.80
2019-04-07T02:55:26.854Z,22.70
2019-04-07T02:56:30.836Z,22.70
2019-04-07T02:57:34.051Z,22.70
2019-04-07T02:58:40.214Z,22.70
2019-04-07T02:59:44.397Z,22.70
2019-04-07T03:00:50.553Z,22.70
2019-04-07T03:01:55.183Z,22.70
2019-04-07T03:02:58.636Z,22.70
2019-04-07T03:04:02.957Z,22.70
2019-04-07T03:05:06.571Z,22.70
2019-04-07T03:06:16.389Z,22.70
2019-04-07T03:07:17.610Z,22.70
2019-04-07T03:08:20.947Z,22.70
2019-04-07T03:09:24.356Z,22.70
2019-04-07T03:10:27.576Z,22.70
2019-04-07T03:11:31.397Z,22.70
2019-04-07T03:12:34.764Z,22.70
2019-04-07T03:13:38.196Z,22.70
2019-04-07T03:14:41.555Z,22.70
2019-04-07T03:15:44.776Z,22.70
2019-04-07T03:16:48.055Z,22.70
2019-04-07T03:17:51.977Z,22.70
2019-04-07T03:18:55.665Z,22.70
2019-04-07T03:19:58.972Z,22.70
2019-04-07T03:21:02.445Z,22.70
2019-04-07T03:22:08.488Z,22.70
2019-04-07T03:23:12.786Z,22.70
2019-04-07T03:24:19.374Z,22.70
2019-04-07T03:25:23.929Z,22.70
2019-04-07T03:26:27.403Z,22.70
2019-04-07T03:27:31.326Z,22.70
2019-04-07T03:28:34.704Z,22.70
2019-04-07T03:29:41.716Z,22.70
2019-04-07T03:30:45.874Z,22.70
2019-04-07T03:31:51.403Z,22.70
2019-04-07T03:32:57.582Z,22.70
2019-04-07T03:34:03.691Z,22.70
2019-04-07T03:35:06.886Z,22.70
2019-04-07T03:36:13.783Z,22.70
2019-04-07T03:37:31.917Z,22.70
2019-04-07T03:38:22.398Z,22.70
2019-04-07T03:39:26.436Z,22.70
2019-04-07T03:40:30.220Z,22.70
2019-04-07T03:41:33.724Z,22.70
2019-04-07T03:42:38.427Z,22.60
2019-04-07T03:43:42.715Z,22.70
2019-04-07T03:44:46.913Z,22.60
2019-04-07T03:45:50.363Z,22.60
2019-04-07T03:46:53.668Z,22.60
2019-04-07T03:47:56.963Z,22.60
2019-04-07T03:49:00.488Z,22.70
2019-04-07T03:50:07.051Z,22.60
2019-04-07T03:51:11.058Z,22.60
2019-04-07T03:52:17.061Z,22.60
2019-04-07T03:53:20.358Z,22.60
2019-04-07T03:54:24.209Z,22.60
2019-04-07T03:55:28.255Z,22.60
2019-04-07T03:56:31.759Z,22.60
2019-04-07T03:57:35.311Z,22.60
2019-04-07T03:58:39.764Z,22.60
2019-04-07T03:59:48.976Z,22.60
2019-04-07T04:01:00.677Z,22.60
2019-04-07T04:02:06.632Z,22.60
2019-04-07T04:03:10.903Z,22.60
2019-04-07T04:04:14.315Z,22.60
2019-04-07T04:05:17.523Z,22.60
2019-04-07T04:06:23.408Z,22.60
2019-04-07T04:07:33.075Z,22.60
2019-04-07T04:08:31.761Z,22.60
2019-04-07T04:09:42.804Z,22.60
2019-04-07T04:10:46.327Z,22.60
2019-04-07T04:11:49.611Z,22.60
2019-04-07T04:12:53.038Z,22.60
2019-04-07T04:13:56.312Z,22.60
2019-04-07T04:15:00.266Z,22.60
2019-04-07T04:16:04.707Z,22.60
2019-04-07T04:17:08.258Z,22.60
2019-04-07T04:18:12.449Z,22.60
2019-04-07T04:19:19.355Z,22.60
2019-04-07T04:20:23.905Z,22.60
2019-04-07T04:21:27.344Z,22.60
2019-04-07T04:22:30.834Z,22.60
2019-04-07T04:23:34.509Z,22.60
2019-04-07T04:24:38.098Z,22.60
2019-04-07T04:25:41.507Z,22.60
2019-04-07T04:26:44.727Z,22.60
2019-04-07T04:27:48.646Z,22.60
2019-04-07T04:28:52.173Z,22.60
2019-04-07T04:29:56.597Z,22.60
2019-04-07T04:31:00.152Z,22.60
2019-04-07T04:32:03.454Z,22.60
2019-04-07T04:33:06.755Z,22.60
2019-04-07T04:34:10.043Z,22.60
2019-04-07T04:35:13.252Z,22.60
2019-04-07T04:36:16.456Z,22.60
2019-04-07T04:37:34.570Z,22.60
2019-04-07T04:38:24.672Z,22.60
2019-04-07T04:39:33.956Z,22.60
2019-04-07T04:40:38.197Z,22.60
2019-04-07T04:41:42.601Z,22.60
2019-04-07T04:42:52.113Z,22.60
2019-04-07T04:43:56.547Z,22.60
2019-04-07T04:45:00.624Z,22.60
2019-04-07T04:46:09.395Z,22.60
2019-04-07T04:47:11.131Z,22.60
2019-04-07T04:48:17.411Z,22.60
2019-04-07T04:49:21.077Z,22.60
2019-04-07T04:50:25.704Z,22.60
2019-04-07T04:51:39.126Z,22.60
2019-04-07T04:52:42.769Z,22.60
2019-04-07T04:53:47.490Z,22.60
2019-04-07T04:54:54.895Z,22.60
2019-04-07T04:55:58.991Z,22.60
2019-04-07T04:57:06.035Z,22.60
2019-04-07T04:58:11.240Z,22.60
2019-04-07T04:59:14.888Z,22.60
2019-04-07T05:00:18.742Z,22.60
2019-04-07T05:01:23.012Z,22.60
2019-04-07T05:02:27.542Z,22.60
2019-04-07T05:03:33.864Z,22.60
2019-04-07T05:04:37.475Z,22.60
2019-04-07T05:05:43.167Z,22.60
2019-04-07T05:06:47.745Z,22.60
2019-04-07T05:08:00.086Z,22.60
2019-04-07T05:08:59.011Z,22.60
2019-04-07T05:10:02.736Z,22.60
2019-04-07T05:11:06.753Z,22.70
2019-04-07T05:12:10.164Z,22.70
2019-04-07T05:13:14.040Z,22.60
2019-04-07T05:14:17.310Z,22.60
2019-04-07T05:15:21.017Z,22.70
2019-04-07T05:16:24.315Z,22.70
2019-04-07T05:17:27.546Z,22.70
2019-04-07T05:18:30.891Z,22.70
2019-04-07T05:19:34.350Z,22.70
2019-04-07T05:20:44.324Z,22.70
2019-04-07T05:21:48.031Z,22.70
2019-04-07T05:22:54.094Z,22.70
2019-04-07T05:23:57.979Z,22.70
2019-04-07T05:25:01.186Z,22.70
2019-04-07T05:26:08.978Z,22.70
2019-04-07T05:27:12.778Z,22.70
2019-04-07T05:28:16.628Z,22.70
2019-04-07T05:29:20.137Z,22.80
2019-04-07T05:30:23.511Z,22.80
2019-04-07T05:31:26.828Z,22.80
2019-04-07T05:32:30.203Z,22.80
2019-04-07T05:33:33.480Z,22.80
2019-04-07T05:34:36.768Z,22.80
2019-04-07T05:35:40.460Z,22.80
2019-04-07T05:36:43.755Z,22.80
2019-04-07T05:37:54.446Z,22.80
2019-04-07T05:38:52.013Z,22.80
2019-04-07T05:39:57.976Z,22.90
2019-04-07T05:41:01.868Z,22.90
2019-04-07T05:42:07.080Z,22.90
2019-04-07T05:43:10.713Z,22.90
2019-04-07T05:44:14.143Z,22.90
2019-04-07T05:45:17.426Z,23.00
2019-04-07T05:46:20.636Z,23.00
2019-04-07T05:47:25.612Z,23.00
2019-04-07T05:48:29.160Z,23.00
2019-04-07T05:49:35.553Z,23.00
2019-04-07T05:50:39.631Z,23.00
2019-04-07T05:51:43.341Z,23.00
2019-04-07T05:52:47.516Z,23.10
2019-04-07T05:53:51.607Z,23.20
2019-04-07T05:54:56.149Z,23.20
2019-04-07T05:55:59.926Z,23.20
2019-04-07T05:57:07.382Z,23.30
2019-04-07T05:58:10.677Z,23.30
2019-04-07T05:59:14.707Z,23.40
2019-04-07T06:00:18.875Z,23.40
2019-04-07T06:01:23.704Z,23.50
2019-04-07T06:02:33.511Z,23.50
2019-04-07T06:03:38.021Z,23.60
2019-04-07T06:04:40.413Z,23.60
2019-04-07T06:05:48.278Z,23.60
2019-04-07T06:06:55.066Z,23.80
2019-04-07T06:07:56.951Z,23.80
2019-04-07T06:09:00.334Z,23.80
2019-04-07T06:10:05.798Z,23.90
2019-04-07T06:11:11.413Z,23.90
2019-04-07T06:12:14.995Z,23.90
2019-04-07T06:13:21.101Z,24.00
2019-04-07T06:14:24.447Z,24.10
2019-04-07T06:15:27.884Z,24.10
2019-04-07T06:16:31.095Z,24.10
2019-04-07T06:17:36.708Z,24.20
2019-04-07T06:18:40.047Z,24.30
2019-04-07T06:19:43.577Z,24.30
2019-04-07T06:20:47.556Z,24.30
2019-04-07T06:21:51.661Z,24.40
2019-04-07T06:22:57.591Z,24.40
2019-04-07T06:24:00.925Z,24.50
2019-04-07T06:25:07.200Z,24.50
2019-04-07T06:26:13.072Z,24.50
2019-04-07T06:27:17.879Z,24.60
2019-04-07T06:28:21.460Z,24.70
2019-04-07T06:29:26.347Z,24.70
2019-04-07T06:30:31.202Z,24.70
2019-04-07T06:31:40.337Z,24.80
2019-04-07T06:32:43.947Z,24.90
2019-04-07T06:33:47.963Z,24.90
2019-04-07T06:34:51.238Z,24.90
2019-04-07T06:35:55.929Z,25.00
2019-04-07T06:36:59.578Z,25.00
2019-04-07T06:38:07.766Z,25.10
2019-04-07T06:39:10.402Z,25.10
2019-04-07T06:40:13.956Z,25.20
2019-04-07T06:41:17.426Z,25.20
2019-04-07T06:42:20.876Z,25.20
2019-04-07T06:43:24.776Z,25.30
2019-04-07T06:44:28.199Z,25.30
2019-04-07T06:45:31.715Z,25.40
2019-04-07T06:46:34.998Z,25.40
2019-04-07T06:47:38.773Z,25.40
2019-04-07T06:48:45.109Z,25.50
2019-04-07T06:49:48.491Z,25.50
2019-04-07T06:50:58.337Z,25.60
2019-04-07T06:52:02.894Z,25.60
2019-04-07T06:53:04.503Z,25.60
2019-04-07T06:54:13.378Z,25.70
2019-04-07T06:55:16.683Z,25.70
2019-04-07T06:56:23.202Z,25.70
2019-04-07T06:57:26.634Z,25.80
2019-04-07T06:58:30.141Z,25.80
2019-04-07T06:59:33.995Z,25.80
2019-04-07T07:00:40.781Z,25.90
2019-04-07T07:01:44.897Z,25.90
2019-04-07T07:02:48.825Z,26.00
2019-04-07T07:03:57.660Z,26.00
2019-04-07T07:05:00.998Z,26.00
2019-04-07T07:06:05.977Z,26.00
2019-04-07T07:07:10.370Z,26.10
2019-04-07T07:08:19.367Z,26.10
2019-04-07T07:09:21.265Z,26.10
2019-04-07T07:10:28.703Z,26.20
2019-04-07T07:11:34.384Z,26.20
2019-04-07T07:12:39.110Z,26.20
2019-04-07T07:13:45.051Z,26.30
2019-04-07T07:14:48.474Z,26.30
2019-04-07T07:15:54.653Z,26.30
2019-04-07T07:16:58.744Z,26.40
2019-04-07T07:18:02.529Z,26.40
2019-04-07T07:19:06.379Z,26.40
2019-04-07T07:20:10.231Z,26.40
2019-04-07T07:21:14.397Z,26.50
2019-04-07T07:22:18.583Z,26.50
2019-04-07T07:23:22.079Z,26.50
2019-04-07T07:24:26.520Z,26.50
2019-04-07T07:25:32.077Z,26.60
2019-04-07T07:26:35.502Z,26.60
2019-04-07T07:27:40.789Z,26.60
2019-04-07T07:28:44.993Z,26.60
2019-04-07T07:29:53.024Z,26.60
2019-04-07T07:30:55.758Z,26.70
2019-04-07T07:32:03.770Z,26.70
2019-04-07T07:33:09.733Z,26.70
2019-04-07T07:34:11.869Z,26.70
2019-04-07T07:35:16.846Z,26.80
2019-04-07T07:36:21.774Z,26.80
2019-04-07T07:37:26.153Z,26.80
2019-04-07T07:38:32.364Z,26.80
2019-04-07T07:39:36.815Z,26.80
2019-04-07T07:40:40.621Z,26.90
2019-04-07T07:41:51.661Z,26.80
2019-04-07T07:43:00.533Z,26.90
2019-04-07T07:44:06.455Z,26.90
2019-04-07T07:45:12.528Z,26.90
2019-04-07T07:46:17.845Z,26.90
2019-04-07T07:47:20.903Z,26.90
2019-04-07T07:48:27.337Z,26.90
2019-04-07T07:49:33.474Z,27.00
2019-04-07T07:50:39.559Z,27.00
2019-04-07T07:51:45.578Z,27.00
2019-04-07T07:52:51.304Z,27.00
2019-04-07T07:53:58.586Z,27.00
2019-04-07T07:55:03.044Z,27.00
2019-04-07T07:56:10.728Z,27.10
2019-04-07T07:57:12.308Z,27.10
2019-04-07T07:58:15.740Z,27.00
2019-04-07T07:59:22.545Z,27.10
2019-04-07T08:00:32.071Z,27.10
2019-04-07T08:01:35.442Z,27.10
2019-04-07T08:02:38.974Z,27.10
2019-04-07T08:03:42.530Z,27.10
2019-04-07T08:04:45.814Z,27.10
2019-04-07T08:05:49.079Z,27.10
2019-04-07T08:06:52.311Z,27.20
2019-04-07T08:07:56.113Z,27.10
2019-04-07T08:09:10.661Z,27.20
2019-04-07T08:10:06.223Z,27.20
2019-04-07T08:11:09.982Z,27.20
2019-04-07T08:12:15.250Z,27.20
2019-04-07T08:13:19.011Z,27.20
2019-04-07T08:14:24.246Z,27.20
2019-04-07T08:15:32.120Z,27.20
2019-04-07T08:16:32.638Z,27.20
2019-04-07T08:17:37.710Z,27.20
2019-04-07T08:18:44.564Z,27.20
2019-04-07T08:19:46.656Z,27.20
2019-04-07T08:20:50.082Z,27.20
2019-04-07T08:21:54.080Z,27.20
2019-04-07T08:22:57.423Z,27.10
2019-04-07T08:24:01.417Z,27.10
2019-04-07T08:25:05.289Z,27.10
2019-04-07T08:26:09.411Z,27.10
2019-04-07T08:27:12.731Z,27.10
2019-04-07T08:28:18.821Z,27.10
2019-04-07T08:29:22.619Z,27.10
2019-04-07T08:30:26.083Z,27.10
2019-04-07T08:31:35.376Z,27.10
2019-04-07T08:32:38.838Z,27.10
2019-04-07T08:33:42.217Z,27.00
2019-04-07T08:34:45.947Z,27.00
2019-04-07T08:35:55.036Z,27.00
2019-04-07T08:37:00.773Z,27.00
2019-04-07T08:38:06.974Z,27.00
2019-04-07T08:39:22.396Z,27.00
2019-04-07T08:40:18.737Z,26.90
2019-04-07T08:41:22.457Z,26.90
2019-04-07T08:42:25.676Z,26.90
2019-04-07T08:43:28.990Z,26.90
2019-04-07T08:44:32.290Z,26.90
2019-04-07T08:45:36.004Z,26.90
2019-04-07T08:46:41.851Z,26.90
2019-04-07T08:47:47.383Z,26.90
2019-04-07T08:48:51.781Z,26.90
2019-04-07T08:49:56.915Z,26.90
2019-04-07T08:51:00.740Z,26.90
2019-04-07T08:52:08.732Z,26.90
2019-04-07T08:53:14.946Z,26.90
2019-04-07T08:54:19.979Z,26.80
2019-04-07T08:55:23.688Z,26.80
2019-04-07T08:56:29.072Z,26.80
2019-04-07T08:57:32.702Z,26.80
2019-04-07T08:58:38.534Z,26.80
2019-04-07T08:59:43.082Z,26.80
2019-04-07T09:00:49.299Z,26.80
2019-04-07T09:01:54.152Z,26.80
2019-04-07T09:03:03.727Z,26.80
2019-04-07T09:04:01.402Z,26.80
2019-04-07T09:05:10.455Z,26.70
2019-04-07T09:06:13.715Z,26.70
2019-04-07T09:07:17.505Z,26.80
2019-04-07T09:08:26.694Z,26.70
2019-04-07T09:09:34.171Z,26.70
2019-04-07T09:10:35.667Z,26.70
2019-04-07T09:11:42.511Z,26.70
2019-04-07T09:12:46.158Z,26.70
2019-04-07T09:13:52.556Z,26.70
2019-04-07T09:14:56.954Z,26.70
2019-04-07T09:16:00.258Z,26.60
2019-04-07T09:17:03.538Z,26.60
2019-04-07T09:18:06.961Z,26.60
2019-04-07T09:19:11.314Z,26.60
2019-04-07T09:20:14.699Z,26.60
2019-04-07T09:21:20.387Z,26.60
2019-04-07T09:22:23.407Z,26.60
2019-04-07T09:23:29.502Z,26.60
2019-04-07T09:24:33.530Z,26.60
2019-04-07T09:25:39.980Z,26.60
2019-04-07T09:26:42.936Z,26.60
2019-04-07T09:27:49.487Z,26.60
2019-04-07T09:28:55.818Z,26.60
2019-04-07T09:30:08.726Z,26.60
2019-04-07T09:31:14.337Z,26.60
2019-04-07T09:32:17.826Z,26.60
2019-04-07T09:33:24.237Z,26.50
2019-04-07T09:34:28.143Z,26.50
2019-04-07T09:35:32.061Z,26.50
2019-04-07T09:36:38.390Z,26.50
2019-04-07T09:37:41.703Z,26.60
2019-04-07T09:38:44.991Z,26.50
2019-04-07T09:39:56.950Z,26.60
2019-04-07T09:40:53.167Z,26.50
2019-04-07T09:41:57.078Z,26.60
2019-04-07T09:43:01.276Z,26.60
2019-04-07T09:44:06.455Z,26.60
2019-04-07T09:45:11.569Z,26.60
2019-04-07T09:46:18.001Z,26.60
2019-04-07T09:47:25.932Z,26.60
2019-04-07T09:48:30.939Z,26.60
2019-04-07T09:49:34.144Z,26.60
2019-04-07T09:50:37.565Z,26.60
2019-04-07T09:51:41.471Z,26.60
2019-04-07T09:52:45.867Z,26.60
2019-04-07T09:53:50.730Z,26.60
2019-04-07T09:54:55.899Z,26.60
2019-04-07T09:55:59.256Z,26.60
2019-04-07T09:57:07.196Z,26.60
2019-04-07T09:58:11.629Z,26.50
2019-04-07T09:59:19.069Z,26.50
2019-04-07T10:00:24.008Z,26.50
2019-04-07T10:01:30.729Z,26.50
2019-04-07T10:02:35.537Z,26.50
2019-04-07T10:03:39.720Z,26.50
2019-04-07T10:04:43.206Z,26.50
2019-04-07T10:05:48.175Z,26.50
2019-04-07T10:06:51.399Z,26.50
2019-04-07T10:08:00.418Z,26.50
2019-04-07T10:09:06.676Z,26.50
2019-04-07T10:10:13.778Z,26.50
2019-04-07T10:11:17.914Z,26.60
2019-04-07T10:12:23.138Z,26.60
2019-04-07T10:13:28.519Z,26.60
2019-04-07T10:14:31.884Z,26.60
2019-04-07T10:15:36.083Z,26.60
2019-04-07T10:16:39.474Z,26.60
2019-04-07T10:17:43.663Z,26.60
2019-04-07T10:18:47.087Z,26.60
2019-04-07T10:19:53.751Z,26.60
2019-04-07T10:20:57.709Z,26.70
2019-04-07T10:22:02.328Z,26.70
2019-04-07T10:23:08.047Z,26.70
2019-04-07T10:24:11.847Z,26.70
2019-04-07T10:25:16.560Z,26.70
2019-04-07T10:26:20.092Z,26.70
2019-04-07T10:27:23.438Z,26.70
2019-04-07T10:28:26.649Z,26.70
2019-04-07T10:29:29.883Z,26.70
2019-04-07T10:30:33.170Z,26.70
2019-04-07T10:31:36.451Z,26.70
2019-04-07T10:32:41.779Z,26.70
2019-04-07T10:33:45.985Z,26.70
2019-04-07T10:34:52.637Z,26.60
2019-04-07T10:35:55.867Z,26.60
2019-04-07T10:37:04.622Z,26.60
2019-04-07T10:38:07.456Z,26.60
2019-04-07T10:39:10.922Z,26.60
2019-04-07T10:40:19.501Z,26.60
2019-04-07T10:41:19.578Z,26.60
2019-04-07T10:42:23.522Z,26.70
2019-04-07T10:43:27.010Z,26.60
2019-04-07T10:44:30.376Z,26.60
2019-04-07T10:45:39.406Z,26.70
2019-04-07T10:46:44.956Z,26.70
2019-04-07T10:47:48.379Z,26.70
2019-04-07T10:48:52.497Z,26.70
2019-04-07T10:50:01.526Z,26.70
2019-04-07T10:51:03.080Z,26.70
2019-04-07T10:52:07.287Z,26.70
2019-04-07T10:53:11.424Z,26.70
2019-04-07T10:54:15.492Z,26.70
2019-04-07T10:55:22.181Z,26.70
2019-04-07T10:56:25.555Z,26.70
2019-04-07T10:57:28.992Z,26.70
2019-04-07T10:58:32.407Z,26.70
2019-04-07T10:59:39.042Z,26.70
2019-04-07T11:00:46.367Z,26.70
2019-04-07T11:01:49.145Z,26.70
2019-04-07T11:02:56.634Z,26.70
2019-04-07T11:03:59.428Z,26.70
2019-04-07T11:05:03.363Z,26.70
2019-04-07T11:06:07.320Z,26.70
2019-04-07T11:07:10.682Z,26.70
2019-04-07T11:08:13.954Z,26.70
2019-04-07T11:09:19.254Z,26.70
2019-04-07T11:10:32.614Z,26.70
2019-04-07T11:11:30.379Z,26.70
2019-04-07T11:12:33.718Z,26.70
2019-04-07T11:13:40.347Z,26.70
2019-04-07T11:14:44.424Z,26.70
2019-04-07T11:15:48.736Z,26.70
2019-04-07T11:16:55.271Z,26.70
2019-04-07T11:17:59.230Z,26.70
2019-04-07T11:19:05.178Z,26.60
2019-04-07T11:20:08.433Z,26.60
2019-04-07T11:21:12.123Z,26.60
2019-04-07T11:22:15.834Z,26.60
2019-04-07T11:23:21.959Z,26.60
2019-04-07T11:24:25.250Z,26.60
2019-04-07T11:25:28.543Z,26.60
2019-04-07T11:26:32.550Z,26.60
2019-04-07T11:27:38.678Z,26.60
2019-04-07T11:28:42.302Z,26.60
2019-04-07T11:29:46.132Z,26.60
2019-04-07T11:30:49.705Z,26.60
2019-04-07T11:31:54.978Z,26.60
2019-04-07T11:32:58.886Z,26.60
2019-04-07T11:34:05.548Z,26.60
2019-04-07T11:35:09.403Z,26.60
2019-04-07T11:36:12.738Z,26.60
2019-04-07T11:37:16.034Z,26.60
2019-04-07T11:38:25.547Z,26.50
2019-04-07T11:39:30.760Z,26.50
2019-04-07T11:40:44.042Z,26.50
2019-04-07T11:41:41.328Z,26.50
2019-04-07T11:42:44.832Z,26.50
2019-04-07T11:43:50.080Z,26.50
2019-04-07T11:44:54.196Z,26.50
2019-04-07T11:46:02.482Z,26.40
2019-04-07T11:47:03.754Z,26.40
2019-04-07T11:48:08.911Z,26.40
2019-04-07T11:49:13.422Z,26.40
2019-04-07T11:50:16.911Z,26.40
2019-04-07T11:51:20.593Z,26.40
2019-04-07T11:52:25.798Z,26.40
2019-04-07T11:53:29.459Z,26.30
2019-04-07T11:54:35.726Z,26.30
2019-04-07T11:55:39.168Z,26.30
2019-04-07T11:56:42.444Z,26.30
2019-04-07T11:57:45.683Z,26.30
2019-04-07T11:58:51.834Z,26.30
2019-04-07T11:59:55.648Z,26.30
2019-04-07T12:00:59.277Z,26.30
2019-04-07T12:02:03.554Z,26.20
2019-04-07T12:03:08.018Z,26.20
2019-04-07T12:04:11.509Z,26.20
2019-04-07T12:05:16.910Z,26.20
2019-04-07T12:06:23.092Z,26.20
2019-04-07T12:07:25.301Z,26.20
2019-04-07T12:08:33.539Z,26.20
2019-04-07T12:09:33.725Z,26.20
2019-04-07T12:10:38.806Z,26.20
2019-04-07T12:11:42.176Z,26.20
2019-04-07T12:12:47.333Z,26.20
2019-04-07T12:13:50.960Z,26.20
2019-04-07T12:14:54.690Z,26.20
2019-04-07T12:15:58.121Z,26.10
2019-04-07T12:17:07.541Z,26.10
2019-04-07T12:18:16.844Z,26.10
2019-04-07T12:19:17.460Z,26.10
2019-04-07T12:20:20.787Z,26.00
2019-04-07T12:21:26.792Z,26.00
2019-04-07T12:22:30.678Z,26.00
2019-04-07T12:23:36.979Z,26.00
2019-04-07T12:24:41.199Z,26.00
2019-04-07T12:25:50.243Z,26.00
2019-04-07T12:26:53.866Z,26.00
2019-04-07T12:27:58.114Z,26.00
2019-04-07T12:29:01.567Z,26.00
2019-04-07T12:30:05.902Z,26.00
2019-04-07T12:31:10.208Z,25.90
2019-04-07T12:32:14.828Z,25.90
2019-04-07T12:33:19.042Z,25.90
2019-04-07T12:34:25.451Z,25.90
2019-04-07T12:35:28.918Z,25.90
2019-04-07T12:36:32.330Z,25.90
2019-04-07T12:37:39.229Z,25.90
2019-04-07T12:38:43.249Z,25.90
2019-04-07T12:39:48.782Z,25.90
2019-04-07T12:40:56.368Z,25.90
2019-04-07T12:41:58.064Z,25.90
2019-04-07T12:43:03.508Z,25.80
2019-04-07T12:44:06.839Z,25.80
2019-04-07T12:45:10.140Z,25.90
2019-04-07T12:46:13.427Z,25.80
2019-04-07T12:47:17.073Z,25.80
2019-04-07T12:48:21.223Z,25.80
2019-04-07T12:49:25.343Z,25.80
2019-04-07T12:50:28.755Z,25.80
2019-04-07T12:51:32.868Z,25.80
2019-04-07T12:52:36.667Z,25.80
2019-04-07T12:53:40.116Z,25.80
2019-04-07T12:54:43.791Z,25.80
2019-04-07T12:55:54.794Z,25.80
2019-04-07T12:56:53.372Z,25.80
2019-04-07T12:57:59.873Z,25.80
2019-04-07T12:59:03.371Z,25.80
2019-04-07T13:00:07.089Z,25.80
2019-04-07T13:01:15.671Z,25.80
2019-04-07T13:02:18.136Z,25.80
2019-04-07T13:03:21.111Z,25.80
2019-04-07T13:04:25.472Z,25.80
2019-04-07T13:05:30.356Z,25.80
2019-04-07T13:06:40.026Z,25.80
2019-04-07T13:07:41.583Z,25.80
2019-04-07T13:08:44.922Z,25.90
2019-04-07T13:09:49.141Z,25.90
2019-04-07T13:10:52.462Z,25.80
2019-04-07T13:11:55.934Z,25.90
2019-04-07T13:12:59.487Z,25.90
2019-04-07T13:14:06.327Z,25.80
2019-04-07T13:15:11.042Z,25.90
2019-04-07T13:16:13.377Z,25.80
2019-04-07T13:17:17.187Z,25.80
2019-04-07T13:18:20.939Z,25.80
2019-04-07T13:19:25.152Z,25.90
2019-04-07T13:20:28.875Z,25.80
2019-04-07T13:21:32.265Z,25.80
2019-04-07T13:22:36.467Z,25.80
2019-04-07T13:23:39.831Z,25.80
2019-04-07T13:24:45.537Z,25.80
2019-04-07T13:25:50.473Z,25.80
2019-04-07T13:26:53.935Z,25.80
2019-04-07T13:27:57.762Z,25.80
2019-04-07T13:29:01.773Z,25.80
2019-04-07T13:30:07.161Z,25.80
2019-04-07T13:31:11.218Z,25.80
2019-04-07T13:32:14.722Z,25.80
2019-04-07T13:33:20.404Z,25.80
2019-04-07T13:34:24.502Z,25.80
2019-04-07T13:35:27.870Z,25.80
2019-04-07T13:36:31.953Z,25.80
2019-04-07T13:37:35.906Z,25.80
2019-04-07T13:38:40.393Z,25.80
2019-04-07T13:39:45.224Z,25.80
2019-04-07T13:40:48.642Z,25.80
2019-04-07T13:41:55.261Z,25.80
2019-04-07T13:43:04.230Z,25.80
2019-04-07T13:44:08.720Z,25.90
2019-04-07T13:45:14.196Z,25.90
2019-04-07T13:46:23.259Z,25.80
2019-04-07T13:47:23.144Z,25.80
2019-04-07T13:48:26.547Z,25.90
2019-04-07T13:49:31.839Z,25.90
2019-04-07T13:50:38.247Z,25.80